Mc Clures Bend, Tennessee
Current Conditions -  °F | °C
As of 10:15 PM on Tuesday 25 Nov 2014 (Local Time) from KSRB Reporting Station
Clear Clear  
Wind Chill: 38°   Ceiling: Unl
Heat Index: 41°   Visibility: 10mi
Dew Point: 30°   Wind: 5mph
Humidity: 65%   Direction: 350°N
Pressure: 30.1"   Gusts: NA
Location:  36.2454°N, 86.0046°W
Report Text: KSRB 260415Z AUTO 35004KT 10SM CLR 05/M01 A3010 RMK
Loading
Personal Weather Stations






























Interactive Weather Map New forecast layout! Learn more

10-Day Weather Forecast

Advertisements
Track Severe Weather on mobile